Time;durP1;ratioP1;P1;durP2;ratioP2;P2;SDS_P1;SDS_P2;PMS_P1;PMS_P2;Temp;Humidity;BMP_temperature;BMP_pressure;BME280_temperature;BME280_humidity;BME280_pressure;Samples;Min_cycle;Max_cycle;Signal;HPM_P1;HPM_P2
2023/03/13 00:01:58;;;;;;;14.98;7.80;;;3.70;82.70;;;;;;6137329;23;20441;-80
2023/03/13 00:04:26;;;;;;;24.05;12.07;;;3.80;82.60;;;;;;6138187;23;20081;-80
2023/03/13 00:06:53;;;;;;;20.42;9.68;;;3.80;82.60;;;;;;6134110;23;20438;-80
2023/03/13 00:09:22;;;;;;;13.80;7.40;;;3.80;82.80;;;;;;6158121;23;20079;-80
2023/03/13 00:11:49;;;;;;;15.18;6.78;;;3.80;82.60;;;;;;6135499;23;20021;-80
2023/03/13 00:14:16;;;;;;;10.27;4.47;;;3.80;82.80;;;;;;6138250;23;20040;-80
2023/03/13 00:16:43;;;;;;;12.15;4.60;;;3.80;82.40;;;;;;6162075;23;20025;-80
2023/03/13 00:19:11;;;;;;;12.57;4.82;;;3.90;82.20;;;;;;6131476;23;20029;-80
2023/03/13 00:21:40;;;;;;;11.82;5.80;;;3.90;82.20;;;;;;6136800;23;20025;-80
2023/03/13 00:24:11;;;;;;;12.73;6.40;;;3.90;82.50;;;;;;6128274;23;20029;-80
2023/03/13 00:26:38;;;;;;;9.50;4.38;;;3.90;82.50;;;;;;6129491;23;20028;-80
2023/03/13 00:29:05;;;;;;;8.55;4.20;;;3.90;82.80;;;;;;6145717;23;20440;-80
2023/03/13 00:31:35;;;;;;;10.20;4.45;;;3.90;83.10;;;;;;6150997;23;20025;-79
2023/03/13 00:34:03;;;;;;;10.75;4.40;;;3.90;83.30;;;;;;6154517;23;20104;-79
2023/03/13 00:36:33;;;;;;;10.15;3.70;;;3.90;83.10;;;;;;6156082;23;20762;-80
2023/03/13 00:39:02;;;;;;;10.50;4.22;;;3.90;83.60;;;;;;6152317;23;20060;-80
2023/03/13 00:41:31;;;;;;;8.38;3.85;;;3.90;83.80;;;;;;6122054;23;20104;-79
2023/03/13 00:43:59;;;;;;;7.90;3.55;;;3.90;83.80;;;;;;6152326;23;20599;-80
2023/03/13 00:46:28;;;;;;;10.98;3.67;;;2.70;83.30;;;;;;6126322;23;20095;-80
2023/03/13 00:48:56;;;;;;;10.20;5.28;;;3.90;84.00;;;;;;6149577;23;20029;-80
2023/03/13 00:51:25;;;;;;;14.20;7.97;;;3.90;83.90;;;;;;6147554;23;20025;-79
2023/03/13 00:53:54;;;;;;;14.68;6.38;;;3.80;84.30;;;;;;6123866;23;20048;-79
2023/03/13 00:56:22;;;;;;;13.75;5.15;;;3.90;84.40;;;;;;6148366;23;20037;-79
2023/03/13 00:58:49;;;;;;;10.20;4.30;;;4.00;84.20;;;;;;6140749;23;20104;-80
2023/03/13 01:01:18;;;;;;;7.57;4.28;;;4.00;84.50;;;;;;6119200;23;20021;-80
2023/03/13 01:03:51;;;;;;;12.10;4.00;;;4.30;84.30;;;;;;6177563;23;20511;-79
2023/03/13 01:06:22;;;;;;;7.55;3.40;;;4.00;84.00;;;;;;6121637;23;20068;-80
2023/03/13 01:08:49;;;;;;;8.93;3.40;;;4.00;84.00;;;;;;6124896;23;20014;-80
2023/03/13 01:11:23;;;;;;;8.00;3.28;;;4.00;84.70;;;;;;6152750;23;20025;-79
2023/03/13 01:13:54;;;;;;;9.68;3.28;;;4.10;84.60;;;;;;6123459;23;20831;-80
2023/03/13 01:16:22;;;;;;;10.57;3.90;;;4.10;84.60;;;;;;6152642;23;20025;-80
2023/03/13 01:18:54;;;;;;;9.48;3.67;;;4.00;84.60;;;;;;6129690;23;20021;-80
2023/03/13 01:21:22;;;;;;;6.90;3.15;;;4.00;84.70;;;;;;6156867;23;20424;-80
2023/03/13 01:23:51;;;;;;;7.80;3.10;;;4.00;84.30;;;;;;6129876;23;20029;-80
2023/03/13 01:26:20;;;;;;;8.18;3.63;;;4.00;84.50;;;;;;6129415;23;20028;-79
2023/03/13 01:28:48;;;;;;;8.80;3.72;;;3.90;84.50;;;;;;6152859;23;20021;-80
2023/03/13 01:31:17;;;;;;;11.00;3.58;;;3.90;85.00;;;;;;6129377;23;20092;-80
2023/03/13 01:33:46;;;;;;;8.75;3.50;;;3.90;85.60;;;;;;6153667;23;20025;-80
2023/03/13 01:36:15;;;;;;;8.07;3.45;;;3.90;85.90;;;;;;6157679;23;20453;-80
2023/03/13 01:38:42;;;;;;;8.45;3.65;;;4.00;86.00;;;;;;6154393;23;20022;-80
2023/03/13 01:41:11;;;;;;;9.70;3.50;;;3.90;86.20;;;;;;6130329;23;20045;-80
2023/03/13 01:43:39;;;;;;;11.30;4.50;;;4.00;86.60;;;;;;6130127;23;20025;-81
2023/03/13 01:46:16;;;;;;;9.02;2.97;;;4.20;87.00;;;;;;6133685;23;20032;-81
2023/03/13 01:49:09;;;;;;;10.52;3.60;;;4.00;86.40;;;;;;6156796;23;20025;-81
2023/03/13 01:52:13;;;;;;;7.30;3.80;;;3.20;86.70;;;;;;6153163;23;20064;-81
2023/03/13 01:55:01;;;;;;;10.93;3.80;;;4.00;86.80;;;;;;6132991;23;20022;-81
2023/03/13 01:57:34;;;;;;;13.45;3.33;;;4.10;87.30;;;;;;6153429;23;20029;-81
2023/03/13 02:00:15;;;;;;;13.23;4.25;;;4.10;87.40;;;;;;6124316;23;20025;-82
2023/03/13 02:02:47;;;;;;;13.65;4.10;;;4.10;88.10;;;;;;6151359;23;20517;-81
2023/03/13 02:05:17;;;;;;;11.80;4.43;;;4.10;88.20;;;;;;6151360;23;20021;-81
2023/03/13 02:07:51;;;;;;;11.55;3.97;;;4.10;88.70;;;;;;6155777;23;20027;-81
2023/03/13 02:10:20;;;;;;;;;;;4.00;89.30;;;;;;6152888;23;20017;-81
2023/03/13 02:12:49;;;;;;;9.05;3.92;;;4.00;89.80;;;;;;6128953;23;19926;-81
2023/03/13 02:15:20;;;;;;;11.93;3.95;;;4.00;90.20;;;;;;6152827;23;20053;-81
2023/03/13 02:17:49;;;;;;;9.43;4.05;;;4.00;90.20;;;;;;6153848;23;20030;-81
2023/03/13 02:20:22;;;;;;;10.00;3.25;;;4.00;90.50;;;;;;6155331;23;20071;-81
2023/03/13 02:23:01;;;;;;;12.18;4.47;;;4.00;90.70;;;;;;6131944;23;20085;-81
2023/03/13 02:25:45;;;;;;;8.77;3.65;;;4.00;90.90;;;;;;6127420;23;20030;-81
2023/03/13 02:28:26;;;;;;;8.52;3.72;;;4.00;91.00;;;;;;6127098;23;20192;-81
2023/03/13 02:30:57;;;;;;;10.43;4.50;;;4.00;91.20;;;;;;6128050;23;20875;-81
2023/03/13 02:33:27;;;;;;;9.18;4.30;;;4.00;91.30;;;;;;6127887;23;20208;-81
2023/03/13 02:35:55;;;;;;;12.77;4.57;;;4.00;91.40;;;;;;6155507;23;20025;-81
2023/03/13 02:38:26;;;;;;;9.15;4.00;;;4.00;91.40;;;;;;6128618;23;20032;-82
2023/03/13 02:40:55;;;;;;;10.02;5.15;;;4.10;91.60;;;;;;6131490;23;20034;-81
2023/03/13 02:43:31;;;;;;;13.10;4.50;;;3.90;91.70;;;;;;6159251;23;20025;-81
2023/03/13 02:46:09;;;;;;;12.38;4.70;;;3.90;91.80;;;;;;6153488;23;20428;-80
2023/03/13 02:48:42;;;;;;;9.25;4.00;;;3.90;91.80;;;;;;6129385;23;20067;-81
2023/03/13 02:51:36;;;;;;;9.27;3.72;;;3.50;91.80;;;;;;6126513;23;20060;-81
2023/03/13 02:54:16;;;;;;;9.70;3.90;;;3.90;92.00;;;;;;6147838;23;20025;-81
2023/03/13 02:56:47;;;;;;;9.38;3.80;;;4.00;92.20;;;;;;6128481;23;20071;-81
2023/03/13 02:59:14;;;;;;;11.40;4.38;;;4.00;92.20;;;;;;6127124;23;20449;-78
2023/03/13 03:01:44;;;;;;;8.98;3.97;;;4.00;92.40;;;;;;6155908;23;20585;-81
2023/03/13 03:04:12;;;;;;;9.15;4.38;;;4.00;92.30;;;;;;6127673;23;20033;-81
2023/03/13 03:06:39;;;;;;;7.93;3.50;;;4.00;92.50;;;;;;6121170;23;20026;-81
2023/03/13 03:09:07;;;;;;;9.50;3.97;;;4.00;92.60;;;;;;6104150;23;20018;-81
2023/03/13 03:11:37;;;;;;;11.95;4.30;;;4.00;92.60;;;;;;6103377;23;20029;-82
2023/03/13 03:14:12;;;;;;;12.23;4.85;;;4.00;92.70;;;;;;6097136;23;20366;-81
2023/03/13 03:16:43;;;;;;;9.35;4.60;;;4.00;92.70;;;;;;6095668;23;20532;-81
2023/03/13 03:19:11;;;;;;;11.02;4.15;;;3.90;92.80;;;;;;6122745;23;20033;-82
2023/03/13 03:21:38;;;;;;;9.73;4.57;;;4.00;92.70;;;;;;6101393;23;20077;-82
2023/03/13 03:24:06;;;;;;;9.25;3.95;;;4.00;92.80;;;;;;6110501;23;20454;-81
2023/03/13 03:26:35;;;;;;;7.35;4.15;;;3.90;92.60;;;;;;6096831;23;20021;-81
2023/03/13 03:29:09;;;;;;;10.57;4.30;;;4.00;92.60;;;;;;6129322;23;20636;-81
2023/03/13 03:31:40;;;;;;;9.25;3.53;;;4.10;92.60;;;;;;6118074;23;20048;-81
2023/03/13 03:34:10;;;;;;;9.23;3.90;;;4.10;92.30;;;;;;6103048;23;20038;-81
2023/03/13 03:36:38;;;;;;;9.93;3.42;;;4.10;92.10;;;;;;6080713;23;20046;-81
2023/03/13 03:39:06;;;;;;;7.88;3.35;;;4.10;92.00;;;;;;6129959;23;20040;-80
2023/03/13 03:41:36;;;;;;;8.52;3.38;;;4.10;92.10;;;;;;6153532;23;20009;-81
2023/03/13 03:44:07;;;;;;;8.15;3.45;;;4.10;91.90;;;;;;6132472;23;20031;-81
2023/03/13 03:46:51;;;;;;;6.95;2.80;;;4.10;91.70;;;;;;6125536;23;20021;-80
2023/03/13 03:49:18;;;;;;;9.57;3.35;;;3.90;91.60;;;;;;6126764;23;20033;-80
2023/03/13 03:51:48;;;;;;;7.47;3.42;;;4.00;91.60;;;;;;6151693;23;20076;-81
2023/03/13 03:54:20;;;;;;;7.65;3.33;;;4.00;91.70;;;;;;6128939;23;20033;-81
2023/03/13 03:56:47;;;;;;;7.25;3.50;;;4.10;91.70;;;;;;6126200;23;20428;-81
2023/03/13 03:59:17;;;;;;;7.15;3.13;;;3.90;91.80;;;;;;6149417;23;20068;-79
2023/03/13 04:01:54;;;;;;;7.75;2.90;;;3.90;91.90;;;;;;6177932;23;20052;-81
2023/03/13 04:04:23;;;;;;;9.98;3.72;;;4.00;92.00;;;;;;6146418;23;20104;-81
2023/03/13 04:06:58;;;;;;;9.73;3.38;;;4.00;92.00;;;;;;6149866;23;20032;-81
2023/03/13 04:09:27;;;;;;;8.60;4.07;;;3.80;92.20;;;;;;6120367;23;20026;-80
2023/03/13 04:11:58;;;;;;;9.27;3.47;;;3.90;92.40;;;;;;6122049;23;20108;-81
2023/03/13 04:14:26;;;;;;;7.63;3.13;;;3.90;92.50;;;;;;6152902;23;20508;-80
2023/03/13 04:16:53;;;;;;;8.48;3.40;;;3.90;92.50;;;;;;6143285;23;20052;-81
2023/03/13 04:19:21;;;;;;;9.05;3.92;;;4.00;92.50;;;;;;6166643;23;20029;-82
2023/03/13 04:21:48;;;;;;;8.32;3.95;;;4.00;92.60;;;;;;6119280;23;20035;-81
2023/03/13 04:24:18;;;;;;;8.35;3.85;;;3.90;92.70;;;;;;6144685;23;20026;-81
2023/03/13 04:26:45;;;;;;;7.88;3.67;;;3.90;92.80;;;;;;6146232;23;20348;-82
2023/03/13 04:29:13;;;;;;;8.57;3.53;;;3.90;92.70;;;;;;6122742;23;20026;-81
2023/03/13 04:32:01;;;;;;;7.97;3.58;;;3.90;93.00;;;;;;6127962;23;20021;-80
2023/03/13 04:34:47;;;;;;;8.57;3.50;;;4.00;93.10;;;;;;6143402;23;20536;-81
2023/03/13 04:37:34;;;;;;;9.13;3.50;;;3.20;93.30;;;;;;6147079;23;20033;-82
2023/03/13 04:40:25;;;;;;;9.15;3.67;;;3.90;93.10;;;;;;6133115;23;20038;-80
2023/03/13 04:43:08;;;;;;;8.35;3.08;;;4.00;93.10;;;;;;6150201;23;20017;-81
2023/03/13 04:45:53;;;;;;;6.65;3.10;;;3.90;93.10;;;;;;6147038;23;20049;-82
2023/03/13 04:48:39;;;;;;;9.05;3.03;;;3.90;93.10;;;;;;6144519;23;20037;-81
2023/03/13 04:51:39;;;;;;;7.03;3.30;;;3.90;93.10;;;;;;6086554;23;20488;-81
2023/03/13 04:54:30;;;;;;;8.10;3.78;;;3.90;93.20;;;;;;6150811;23;20040;-81
2023/03/13 04:57:06;;;;;;;11.13;3.25;;;3.90;93.30;;;;;;6125429;23;20725;-80
2023/03/13 04:59:54;;;;;;;10.70;3.72;;;3.80;93.40;;;;;;6145223;23;20037;-80
2023/03/13 05:02:24;;;;;;;7.85;3.45;;;3.80;93.60;;;;;;6144263;23;20049;-81
2023/03/13 05:05:12;;;;;;;9.25;3.67;;;3.80;93.70;;;;;;6132719;23;20021;-81
2023/03/13 05:07:48;;;;;;;9.75;3.65;;;3.90;93.70;;;;;;6155904;23;20033;-81
2023/03/13 05:10:19;;;;;;;8.77;4.00;;;4.30;93.80;;;;;;6157316;23;20591;-81
2023/03/13 05:13:15;;;;;;;9.70;2.90;;;3.30;93.50;;;;;;6130392;23;20107;-81
2023/03/13 05:15:55;;;;;;;8.52;3.42;;;3.90;93.70;;;;;;6126076;23;20117;-81
2023/03/13 05:18:42;;;;;;;10.57;4.07;;;3.90;93.60;;;;;;6130710;23;20037;-81
2023/03/13 05:21:28;;;;;;;6.88;3.33;;;3.90;93.70;;;;;;6148721;23;20080;-81
2023/03/13 05:24:19;;;;;;;13.15;4.35;;;4.00;93.70;;;;;;6096452;23;20045;-81
2023/03/13 05:26:56;;;;;;;8.68;4.00;;;3.90;93.60;;;;;;6125003;23;20031;-82
2023/03/13 05:29:35;;;;;;;8.27;3.65;;;3.90;93.50;;;;;;6144799;23;20508;-81
2023/03/13 05:32:33;;;;;;;9.75;3.58;;;3.90;93.70;;;;;;6145099;23;20098;-82
2023/03/13 05:35:23;;;;;;;7.95;3.33;;;4.00;93.50;;;;;;6118453;23;20033;-81
2023/03/13 05:38:15;;;;;;;9.75;3.22;;;4.00;93.50;;;;;;6134494;23;20021;-81
2023/03/13 05:41:01;;;;;;;9.70;3.13;;;4.10;93.40;;;;;;6149614;23;20031;-81
2023/03/13 05:43:47;;;;;;;9.50;3.60;;;4.00;93.50;;;;;;6128960;23;20053;-81
2023/03/13 05:46:31;;;;;;;6.03;2.78;;;4.00;93.70;;;;;;6149567;23;20045;-82
2023/03/13 05:49:17;;;;;;;9.20;3.08;;;4.10;93.40;;;;;;6149997;23;20040;-81
2023/03/13 05:52:03;;;;;;;9.32;4.00;;;4.10;93.40;;;;;;6129136;23;20469;-81
2023/03/13 05:54:46;;;;;;;8.82;3.50;;;4.10;93.40;;;;;;6159390;23;20029;-81
2023/03/13 05:57:22;;;;;;;8.52;3.45;;;4.10;93.20;;;;;;6125126;23;20021;-80
2023/03/13 06:00:28;;;;;;;11.20;4.18;;;4.20;93.20;;;;;;6087698;23;20030;-81
2023/03/13 06:03:10;;;;;;;7.40;3.87;;;4.20;93.00;;;;;;6087709;23;20019;-81
2023/03/13 06:05:43;;;;;;;7.93;2.58;;;4.20;92.90;;;;;;6083416;23;20022;-81
2023/03/13 06:08:33;;;;;;;9.88;4.35;;;4.20;92.80;;;;;;6082918;23;20026;-82
2023/03/13 06:11:02;;;;;;;10.10;4.78;;;4.20;92.80;;;;;;6091064;23;20062;-82
2023/03/13 06:13:30;;;;;;;12.15;6.30;;;4.30;92.70;;;;;;6090586;23;20026;-81
2023/03/13 06:16:03;;;;;;;10.82;4.32;;;4.30;92.50;;;;;;6090407;23;20010;-82
2023/03/13 06:18:40;;;;;;;13.85;4.88;;;4.30;92.40;;;;;;6089069;23;20030;-81
2023/03/13 06:21:07;;;;;;;10.88;4.30;;;4.40;92.30;;;;;;6092009;23;20030;-82
2023/03/13 06:23:35;;;;;;;11.80;5.70;;;4.40;92.40;;;;;;6093327;23;20026;-81
2023/03/13 06:26:03;;;;;;;13.23;6.57;;;4.50;92.20;;;;;;6089194;23;20018;-82
2023/03/13 06:28:30;;;;;;;15.65;7.72;;;4.50;91.80;;;;;;6089846;23;20382;-82
2023/03/13 06:31:05;;;;;;;11.20;4.68;;;4.50;92.10;;;;;;6113313;23;20644;-82
2023/03/13 06:33:33;;;;;;;10.40;4.32;;;4.60;91.60;;;;;;6155746;23;20025;-82
2023/03/13 06:36:02;;;;;;;12.73;4.00;;;4.70;91.60;;;;;;6149799;23;20061;-81
2023/03/13 06:38:32;;;;;;;12.45;5.13;;;4.80;91.20;;;;;;6124830;23;20030;-82
2023/03/13 06:41:00;;;;;;;13.13;5.78;;;4.80;91.20;;;;;;6125816;23;20036;-82
2023/03/13 06:43:29;;;;;;;10.35;3.97;;;4.90;90.90;;;;;;6144512;23;20544;-82
2023/03/13 06:46:01;;;;;;;7.90;3.95;;;5.00;90.70;;;;;;6147184;23;20021;-82
2023/03/13 06:48:28;;;;;;;12.35;4.60;;;5.10;90.40;;;;;;6152308;23;20045;-82
2023/03/13 06:50:55;;;;;;;8.13;3.90;;;5.20;90.30;;;;;;6156092;23;20222;-82
2023/03/13 06:53:23;;;;;;;8.32;4.00;;;5.40;90.10;;;;;;6152251;23;20025;-82
2023/03/13 06:55:50;;;;;;;10.63;4.30;;;5.40;89.20;;;;;;6155434;23;20025;-81
2023/03/13 06:58:18;;;;;;;10.07;3.95;;;5.50;88.90;;;;;;6151551;23;20029;-82
2023/03/13 07:01:08;;;;;;;9.70;4.15;;;5.60;89.00;;;;;;6128495;23;20504;-81
2023/03/13 07:03:36;;;;;;;9.23;4.60;;;5.50;87.60;;;;;;6150282;23;20029;-82
2023/03/13 07:06:04;;;;;;;9.45;4.28;;;5.50;87.40;;;;;;6129705;23;20056;-82
2023/03/13 07:08:32;;;;;;;10.82;4.68;;;5.60;86.80;;;;;;6152608;23;20032;-81
2023/03/13 07:11:02;;;;;;;9.05;4.22;;;5.60;86.90;;;;;;6130243;23;20028;-82
2023/03/13 07:13:29;;;;;;;10.73;4.25;;;5.60;86.60;;;;;;6153038;23;20021;-81
2023/03/13 07:16:00;;;;;;;9.98;4.43;;;5.70;86.60;;;;;;6128608;23;20306;-81
2023/03/13 07:18:27;;;;;;;10.80;4.50;;;5.70;86.60;;;;;;6150145;23;20098;-81
2023/03/13 07:20:56;;;;;;;7.03;3.10;;;5.80;86.00;;;;;;6129174;23;20029;-81
2023/03/13 07:23:25;;;;;;;11.88;4.72;;;5.80;85.70;;;;;;6154504;23;20085;-82
2023/03/13 07:25:54;;;;;;;8.25;3.38;;;6.00;86.40;;;;;;6157672;23;20020;-82
2023/03/13 07:28:22;;;;;;;7.95;3.88;;;6.10;85.00;;;;;;6133549;23;20064;-82
2023/03/13 07:30:51;;;;;;;9.20;3.72;;;6.10;84.30;;;;;;6131154;23;20021;-82
2023/03/13 07:33:18;;;;;;;7.75;3.65;;;6.20;84.20;;;;;;6130040;23;20029;-82
2023/03/13 07:35:50;;;;;;;9.15;4.18;;;6.30;83.70;;;;;;6136467;23;20032;-82
2023/03/13 07:38:18;;;;;;;12.15;4.30;;;6.40;83.10;;;;;;6131993;23;20484;-80
2023/03/13 07:40:50;;;;;;;7.50;3.60;;;6.50;83.00;;;;;;6131678;23;20342;-79
2023/03/13 07:43:18;;;;;;;8.40;4.00;;;6.50;82.00;;;;;;6131440;23;20103;-80
2023/03/13 07:45:56;;;;;;;7.88;3.20;;;6.60;82.60;;;;;;6131076;23;20297;-80
2023/03/13 07:48:29;;;;;;;9.00;3.53;;;5.90;82.00;;;;;;6129663;23;20579;-79
2023/03/13 07:50:57;;;;;;;8.20;3.10;;;6.90;81.90;;;;;;6131542;23;20021;-82
2023/03/13 07:53:25;;;;;;;7.53;3.05;;;6.90;80.90;;;;;;6130201;23;20449;-81
2023/03/13 07:55:58;;;;;;;9.10;3.90;;;7.00;81.70;;;;;;6156609;23;20075;-82
2023/03/13 07:58:30;;;;;;;8.35;3.88;;;7.20;79.90;;;;;;6137382;23;20031;-81
2023/03/13 08:00:58;;;;;;;8.40;3.57;;;7.20;79.80;;;;;;6131249;23;20506;-82
2023/03/13 08:03:26;;;;;;;7.40;3.50;;;7.40;79.50;;;;;;6129779;23;20085;-82
2023/03/13 08:05:58;;;;;;;9.40;3.78;;;7.50;79.60;;;;;;6134130;23;20016;-81
2023/03/13 08:08:26;;;;;;;8.25;3.40;;;7.60;79.10;;;;;;6156518;23;20429;-81
2023/03/13 08:11:17;;;;;;;6.57;2.78;;;7.70;79.50;;;;;;6156306;23;20369;-81
2023/03/13 08:13:45;;;;;;;7.53;3.78;;;7.80;78.80;;;;;;6132407;23;20029;-80
2023/03/13 08:16:12;;;;;;;8.15;3.05;;;7.80;78.40;;;;;;6130735;23;20112;-81
2023/03/13 08:18:42;;;;;;;8.48;3.72;;;7.90;79.90;;;;;;6154422;23;20055;-81
2023/03/13 08:21:14;;;;;;;8.88;3.40;;;8.00;78.20;;;;;;6132559;23;20082;-80
2023/03/13 08:23:42;;;;;;;8.60;3.25;;;8.10;78.80;;;;;;6153690;23;20032;-81
2023/03/13 08:26:15;;;;;;;6.97;3.25;;;8.20;78.20;;;;;;6128734;23;20020;-81
2023/03/13 08:28:43;;;;;;;;;;;8.40;78.20;;;;;;6154609;23;20088;-79
2023/03/13 08:31:14;;;;;;;6.90;3.08;;;8.50;77.50;;;;;;6127227;23;19926;-80
2023/03/13 08:33:43;;;;;;;7.07;3.05;;;8.50;77.40;;;;;;6127725;23;20083;-81
2023/03/13 08:36:20;;;;;;;9.82;3.55;;;8.50;76.60;;;;;;6155034;23;20526;-81
2023/03/13 08:38:48;;;;;;;8.80;3.65;;;8.60;77.60;;;;;;6129260;23;20099;-79
2023/03/13 08:41:24;;;;;;;8.10;3.67;;;8.50;76.20;;;;;;6128378;23;20184;-80
2023/03/13 08:43:53;;;;;;;6.22;3.10;;;8.70;75.90;;;;;;6127735;23;20056;-80
2023/03/13 08:46:20;;;;;;;12.10;3.75;;;8.70;75.40;;;;;;6126159;23;20606;-81
2023/03/13 08:48:50;;;;;;;6.65;2.95;;;8.90;76.20;;;;;;6128487;23;20537;-80
2023/03/13 08:51:18;;;;;;;8.65;4.07;;;8.90;76.50;;;;;;6126285;23;20021;-81
2023/03/13 08:53:46;;;;;;;9.10;3.95;;;9.00;75.50;;;;;;6126852;23;20421;-81
2023/03/13 08:56:16;;;;;;;7.22;3.45;;;9.20;75.90;;;;;;6131746;23;20024;-81
2023/03/13 08:58:51;;;;;;;8.45;3.15;;;9.10;75.80;;;;;;6128322;23;20036;-81
2023/03/13 09:01:20;;;;;;;6.80;3.25;;;9.20;75.10;;;;;;6126427;23;20635;-80
2023/03/13 09:03:48;;;;;;;10.85;3.47;;;9.30;73.50;;;;;;6153822;23;20040;-80
2023/03/13 09:06:16;;;;;;;8.02;3.20;;;9.40;74.30;;;;;;6150852;23;20068;-78
2023/03/13 09:08:44;;;;;;;5.72;2.38;;;9.00;73.50;;;;;;6122483;23;20091;-80
2023/03/13 09:11:14;;;;;;;7.68;3.13;;;9.60;72.90;;;;;;6148871;23;20021;-80
2023/03/13 09:13:45;;;;;;;8.32;3.45;;;9.50;72.50;;;;;;6120839;23;20028;-79
2023/03/13 09:16:14;;;;;;;6.95;2.33;;;9.80;72.90;;;;;;6146619;23;20060;-78
2023/03/13 09:18:43;;;;;;;6.30;3.30;;;9.90;71.70;;;;;;6122558;23;20025;-81
2023/03/13 09:21:18;;;;;;;5.07;2.40;;;9.90;71.50;;;;;;6148052;23;20021;-81
2023/03/13 09:23:46;;;;;;;8.65;2.78;;;9.30;70.80;;;;;;6134569;23;20032;-81
2023/03/13 09:26:17;;;;;;;7.45;2.92;;;10.20;69.20;;;;;;6130525;23;20091;-80
2023/03/13 09:28:48;;;;;;;9.40;3.92;;;10.30;68.50;;;;;;6129809;23;20021;-80
2023/03/13 09:31:21;;;;;;;6.53;2.63;;;10.30;67.80;;;;;;6158945;23;20000;-82
2023/03/13 09:33:49;;;;;;;7.03;2.33;;;10.40;68.20;;;;;;6132170;23;20035;-81
2023/03/13 09:36:19;;;;;;;5.93;2.38;;;11.00;68.30;;;;;;6130703;23;20029;-79
2023/03/13 09:38:50;;;;;;;4.72;2.20;;;10.60;67.60;;;;;;6131866;23;20610;-79
2023/03/13 09:41:32;;;;;;;5.85;2.25;;;10.50;66.80;;;;;;6131089;23;20025;-81
2023/03/13 09:44:02;;;;;;;4.10;1.30;;;10.50;66.60;;;;;;6127452;23;20048;-80
2023/03/13 09:46:38;;;;;;;4.97;1.20;;;10.60;65.20;;;;;;6159371;23;20017;-80
2023/03/13 09:49:43;;;;;;;8.38;2.38;;;10.80;65.50;;;;;;6152703;23;20040;-80
2023/03/13 09:52:21;;;;;;;4.63;1.70;;;10.80;65.20;;;;;;6184103;23;20052;-79
2023/03/13 09:55:01;;;;;;;5.47;1.70;;;11.10;65.50;;;;;;6128689;23;20025;-80
2023/03/13 09:57:39;;;;;;;5.22;1.88;;;11.10;65.00;;;;;;6155596;23;20067;-79
2023/03/13 10:00:13;;;;;;;4.32;2.35;;;11.40;64.70;;;;;;6155891;23;20028;-80
2023/03/13 10:02:55;;;;;;;5.40;2.28;;;11.40;64.50;;;;;;6132024;23;20046;-81
2023/03/13 10:05:26;;;;;;;4.38;1.83;;;11.60;65.30;;;;;;6153381;23;20342;-81
2023/03/13 10:08:07;;;;;;;7.03;1.75;;;11.50;63.40;;;;;;6156395;23;20037;-81
2023/03/13 10:10:43;;;;;;;6.20;1.90;;;11.60;62.90;;;;;;6129418;23;20021;-81
2023/03/13 10:13:38;;;;;;;5.05;2.50;;;11.90;63.30;;;;;;6131809;23;20021;-80
2023/03/13 10:16:15;;;;;;;6.05;2.10;;;11.90;62.20;;;;;;6152160;23;20025;-80
2023/03/13 10:18:51;;;;;;;5.90;2.38;;;11.80;62.10;;;;;;6125534;23;20025;-80
2023/03/13 10:21:26;;;;;;;5.40;1.85;;;11.80;61.30;;;;;;6129699;23;20103;-80
2023/03/13 10:24:04;;;;;;;3.90;2.05;;;12.00;62.20;;;;;;6125825;23;20029;-80
2023/03/13 10:26:34;;;;;;;6.28;2.42;;;11.90;61.60;;;;;;6124147;23;20272;-79
2023/03/13 10:29:20;;;;;;;5.40;2.17;;;12.00;61.70;;;;;;6126334;23;20028;-80
2023/03/13 10:31:58;;;;;;;9.20;2.45;;;12.10;61.20;;;;;;6147227;23;20338;-81
2023/03/13 10:34:28;;;;;;;4.65;1.67;;;12.10;60.90;;;;;;6126684;23;20357;-79
2023/03/13 10:37:01;;;;;;;6.00;1.38;;;12.20;61.30;;;;;;6125273;23;20012;-78
2023/03/13 10:39:29;;;;;;;5.90;2.53;;;12.30;61.30;;;;;;6155061;23;20052;-79
2023/03/13 10:42:16;;;;;;;7.13;2.25;;;12.20;60.80;;;;;;6124723;23;20112;-81
2023/03/13 10:44:44;;;;;;;5.32;1.77;;;12.40;61.40;;;;;;6125400;23;20029;-81
2023/03/13 10:47:13;;;;;;;5.43;1.63;;;12.50;60.80;;;;;;6124273;23;20080;-80
2023/03/13 10:49:50;;;;;;;4.00;1.88;;;12.50;60.70;;;;;;6130911;23;20091;-81
2023/03/13 10:52:50;;;;;;;5.20;1.80;;;12.60;60.30;;;;;;6123257;23;20455;-80
2023/03/13 10:55:20;;;;;;;2.65;0.93;;;12.60;60.60;;;;;;6094353;23;20032;-79
2023/03/13 10:57:56;;;;;;;5.25;2.10;;;12.60;59.50;;;;;;6125215;23;20025;-80
2023/03/13 11:01:06;;;;;;;8.40;2.00;;;12.60;59.70;;;;;;6149846;23;20025;-81
2023/03/13 11:03:38;;;;;;;6.13;2.55;;;12.70;60.10;;;;;;6152726;23;20025;-81
2023/03/13 11:06:05;;;;;;;2.88;1.45;;;12.90;60.70;;;;;;6131877;23;20031;-79
2023/03/13 11:08:41;;;;;;;6.95;1.98;;;13.00;60.40;;;;;;6120433;23;20027;-80
2023/03/13 11:11:41;;;;;;;5.38;1.65;;;13.30;60.60;;;;;;6128271;23;20069;-80
2023/03/13 11:14:24;;;;;;;3.00;1.50;;;13.00;60.10;;;;;;6068344;23;20410;-80
2023/03/13 11:17:14;;;;;;;7.47;1.77;;;13.10;60.20;;;;;;6036899;23;20086;-81
2023/03/13 11:19:56;;;;;;;6.07;2.33;;;13.00;59.80;;;;;;6061527;23;20070;-81
2023/03/13 11:22:41;;;;;;;6.38;2.50;;;13.10;60.30;;;;;;6060312;23;20032;-80
2023/03/13 11:25:27;;;;;;;6.35;2.20;;;13.10;60.10;;;;;;6039502;23;20044;-81
2023/03/13 11:28:04;;;;;;;5.10;2.03;;;13.20;60.30;;;;;;6036867;23;20478;-80
2023/03/13 11:30:40;;;;;;;4.10;1.80;;;13.20;59.80;;;;;;6064873;23;20022;-78
2023/03/13 11:33:35;;;;;;;8.20;2.92;;;13.30;60.70;;;;;;6060059;23;20068;-81
2023/03/13 11:36:15;;;;;;;5.90;2.20;;;13.40;60.60;;;;;;6042784;23;20053;-80
2023/03/13 11:39:00;;;;;;;7.40;2.55;;;13.50;60.10;;;;;;6065961;23;20808;-81
2023/03/13 11:42:12;;;;;;;5.15;2.10;;;13.50;59.60;;;;;;6041852;23;20058;-80
2023/03/13 11:45:09;;;;;;;5.00;2.80;;;13.50;59.00;;;;;;6069723;23;20032;-80
2023/03/13 11:47:59;;;;;;;6.65;1.95;;;13.50;58.90;;;;;;6091807;23;20474;-81
2023/03/13 11:51:06;;;;;;;6.95;2.50;;;13.60;59.80;;;;;;6090694;23;20469;-81
2023/03/13 11:53:49;;;;;;;5.72;2.47;;;13.80;60.50;;;;;;6094351;23;20025;-81
2023/03/13 11:56:30;;;;;;;5.68;2.55;;;14.00;58.40;;;;;;6092814;23;20049;-80
2023/03/13 11:58:58;;;;;;;5.35;1.73;;;13.80;58.30;;;;;;6090607;23;20022;-80
2023/03/13 12:01:33;;;;;;;3.47;1.42;;;13.80;58.50;;;;;;6091987;23;20081;-79
2023/03/13 12:04:21;;;;;;;7.07;2.03;;;14.00;58.10;;;;;;6063037;23;20128;-80
2023/03/13 12:07:22;;;;;;;7.30;2.45;;;14.10;58.10;;;;;;6093180;23;20021;-80
2023/03/13 12:09:55;;;;;;;7.75;2.50;;;14.00;57.40;;;;;;6088351;23;20025;-79
2023/03/13 12:12:34;;;;;;;7.68;2.50;;;14.10;58.30;;;;;;6089153;23;20033;-80
2023/03/13 12:15:16;;;;;;;8.10;2.92;;;14.30;58.60;;;;;;6095823;23;20361;-81
2023/03/13 12:18:00;;;;;;;4.95;2.10;;;14.40;59.30;;;;;;6122076;23;20030;-79
2023/03/13 12:20:52;;;;;;;5.25;1.42;;;14.40;58.90;;;;;;6117224;23;20053;-79
2023/03/13 12:23:27;;;;;;;4.90;1.27;;;14.10;57.90;;;;;;6091566;23;20531;-77
2023/03/13 12:26:20;;;;;;;5.07;2.00;;;14.00;58.80;;;;;;6092357;23;20445;-81
2023/03/13 12:29:47;;;;;;;4.53;1.30;;;14.10;59.10;;;;;;6113175;23;20053;-79
2023/03/13 12:32:33;;;;;;;4.22;1.88;;;14.40;58.50;;;;;;6002041;23;20537;-81
2023/03/13 12:35:13;;;;;;;5.10;2.00;;;14.50;58.50;;;;;;6003586;23;20106;-79
2023/03/13 12:38:02;;;;;;;5.93;1.65;;;14.10;59.10;;;;;;6105329;23;20075;-81
2023/03/13 12:41:03;;;;;;;3.15;1.00;;;13.90;59.90;;;;;;6119210;23;20035;-80
2023/03/13 12:43:32;;;;;;;4.95;1.35;;;13.90;60.50;;;;;;6142224;23;20047;-81
2023/03/13 12:45:59;;;;;;;7.20;1.48;;;14.10;61.20;;;;;;6116761;23;20513;-80
2023/03/13 12:48:50;;;;;;;6.28;1.30;;;14.10;61.60;;;;;;6140351;23;20029;-79
2023/03/13 12:51:38;;;;;;;2.72;1.13;;;14.10;61.50;;;;;;6145654;23;20002;-80
2023/03/13 12:54:17;;;;;;;2.83;1.05;;;14.30;60.80;;;;;;6143859;23;20273;-81
2023/03/13 12:56:51;;;;;;;5.68;1.35;;;14.30;60.60;;;;;;6119174;23;20049;-80
2023/03/13 12:59:24;;;;;;;3.47;1.15;;;14.20;60.90;;;;;;6143199;23;20029;-80
2023/03/13 13:01:55;;;;;;;7.82;1.35;;;14.10;61.40;;;;;;6144962;23;20029;-80
2023/03/13 13:04:29;;;;;;;2.10;0.80;;;14.10;61.50;;;;;;6141162;23;20358;-79
2023/03/13 13:07:03;;;;;;;4.85;1.00;;;14.40;61.30;;;;;;6148971;23;20101;-80
2023/03/13 13:09:58;;;;;;;4.07;1.20;;;14.60;60.70;;;;;;6113421;23;20021;-80
2023/03/13 13:12:26;;;;;;;4.10;1.50;;;14.70;60.00;;;;;;6095567;23;20060;-80
2023/03/13 13:14:56;;;;;;;3.10;1.20;;;14.70;60.00;;;;;;6087851;23;20030;-79
2023/03/13 13:17:39;;;;;;;3.42;1.17;;;14.50;60.00;;;;;;6060384;23;20065;-80
2023/03/13 13:20:27;;;;;;;2.63;0.98;;;14.20;60.40;;;;;;6037399;23;20030;-79
2023/03/13 13:23:32;;;;;;;2.53;1.05;;;14.10;60.50;;;;;;6061357;23;20107;-80
2023/03/13 13:26:25;;;;;;;2.75;0.68;;;14.10;60.70;;;;;;6061729;23;20445;-80
2023/03/13 13:28:54;;;;;;;3.05;0.80;;;14.00;61.00;;;;;;6036553;23;20030;-80
2023/03/13 13:31:48;;;;;;;5.15;0.95;;;14.10;60.90;;;;;;6059782;23;20057;-81
2023/03/13 13:34:30;;;;;;;3.97;0.82;;;14.10;61.00;;;;;;6037883;23;20074;-80
2023/03/13 13:36:59;;;;;;;4.63;1.30;;;14.10;61.20;;;;;;6063407;23;20034;-80